Аэропорт: Казань. Казань

ICAO: UWKD

METAR:
2018/11/19 10:00
UWKD 191000Z 29004MPS 9000 OVC005 01/M00 Q1023 R29/650345 TEMPO 3100 -SHSNRA BKN010CB RMK QFE756/1008
METAR:
2018/11/19 09:21
TAF UWKD 190757Z 1909/2009 29003MPS 2100 -SNRA BR OVC006 TX00/1912Z TNM02/2002Z 
      TEMPO 1909/1913 0800 +SHSNRA BKN003 BKN013CB 
     FM191300 33005MPS 3100 BR BKN007 
      TEMPO 1913/1921 1000 SHSN BKN012CB 
      TEMPO 1921/2006 -SHSN BKN010CB